createdAt,value
2023-03-05T00:01:22.675Z,4.10
2023-03-05T00:03:52.225Z,4.10
2023-03-05T00:06:22.526Z,4.00
2023-03-05T00:08:51.534Z,4.00
2023-03-05T00:11:19.286Z,4.00
2023-03-05T00:13:47.423Z,4.00
2023-03-05T00:16:16.900Z,3.90
2023-03-05T00:18:46.309Z,4.00
2023-03-05T00:21:22.531Z,3.90
2023-03-05T00:23:51.629Z,3.90
2023-03-05T00:26:19.667Z,3.90
2023-03-05T00:28:50.195Z,3.90
2023-03-05T00:31:18.265Z,3.90
2023-03-05T00:33:46.232Z,3.90
2023-03-05T00:36:14.116Z,3.80
2023-03-05T00:38:43.325Z,3.80
2023-03-05T00:41:11.161Z,3.80
2023-03-05T00:43:39.028Z,3.70
2023-03-05T00:46:06.895Z,3.70
2023-03-05T00:48:34.738Z,3.70
2023-03-05T00:51:02.631Z,3.60
2023-03-05T00:53:30.600Z,3.60
2023-03-05T00:56:00.095Z,3.60
2023-03-05T00:58:28.108Z,3.60
2023-03-05T01:00:59.147Z,3.60
2023-03-05T01:03:27.315Z,3.50
2023-03-05T01:05:56.822Z,3.50
2023-03-05T01:08:24.845Z,3.50
2023-03-05T01:10:53.328Z,3.50
2023-03-05T01:13:22.553Z,3.40
2023-03-05T01:15:51.110Z,3.40
2023-03-05T01:18:19.929Z,3.40
2023-03-05T01:20:47.916Z,3.40
2023-03-05T01:23:15.793Z,3.40
2023-03-05T01:25:44.343Z,3.30
2023-03-05T01:28:12.202Z,3.30
2023-03-05T01:30:41.325Z,3.30
2023-03-05T01:33:09.093Z,3.30
2023-03-05T01:35:36.984Z,3.30
2023-03-05T01:38:04.817Z,3.40
2023-03-05T01:40:33.173Z,3.40
2023-03-05T01:43:07.660Z,3.40
2023-03-05T01:45:36.524Z,3.40
2023-03-05T01:48:06.281Z,3.40
2023-03-05T01:50:34.448Z,3.40
2023-03-05T01:53:04.953Z,3.40
2023-03-05T01:55:37.188Z,3.40
2023-03-05T01:58:09.807Z,3.40
2023-03-05T02:00:44.344Z,3.30
2023-03-05T02:03:14.622Z,3.30
2023-03-05T02:05:44.429Z,3.30
2023-03-05T02:08:14.669Z,3.30
2023-03-05T02:10:45.459Z,3.30
2023-03-05T02:13:16.086Z,3.20
2023-03-05T02:15:44.089Z,3.30
2023-03-05T02:18:13.454Z,3.30
2023-03-05T02:20:47.463Z,3.30
2023-03-05T02:23:18.703Z,3.30
2023-03-05T02:25:46.879Z,3.40
2023-03-05T02:28:18.975Z,3.40
2023-03-05T02:30:47.359Z,3.40
2023-03-05T02:33:15.910Z,3.40
2023-03-05T02:35:44.376Z,3.40
2023-03-05T02:38:12.282Z,3.50
2023-03-05T02:40:41.824Z,3.40
2023-03-05T02:43:10.976Z,3.40
2023-03-05T02:45:39.653Z,3.40
2023-03-05T02:48:08.195Z,3.40
2023-03-05T02:50:36.591Z,3.40
2023-03-05T02:53:04.471Z,3.40
2023-03-05T02:55:32.530Z,3.40
2023-03-05T02:58:02.653Z,3.40
2023-03-05T03:00:30.614Z,3.30
2023-03-05T03:02:58.536Z,3.30
2023-03-05T03:05:26.440Z,3.30
2023-03-05T03:07:54.246Z,3.40
2023-03-05T03:10:22.167Z,3.40
2023-03-05T03:12:50.028Z,3.40
2023-03-05T03:15:19.593Z,3.40
2023-03-05T03:17:47.580Z,3.50
2023-03-05T03:20:17.904Z,3.50
2023-03-05T03:22:46.877Z,3.40
2023-03-05T03:25:16.684Z,3.40
2023-03-05T03:27:44.465Z,3.40
2023-03-05T03:30:13.863Z,3.40
2023-03-05T03:32:43.443Z,3.40
2023-03-05T03:35:12.268Z,3.40
2023-03-05T03:37:40.399Z,3.40
2023-03-05T03:40:09.265Z,3.40
2023-03-05T03:42:37.456Z,3.40
2023-03-05T03:45:06.273Z,3.30
2023-03-05T03:47:34.223Z,3.30
2023-03-05T03:50:03.684Z,3.30
2023-03-05T03:52:32.009Z,3.30
2023-03-05T03:55:01.702Z,3.30
2023-03-05T03:57:30.406Z,3.30
2023-03-05T03:59:58.218Z,3.30
2023-03-05T04:02:26.692Z,3.30
2023-03-05T04:04:54.924Z,3.20
2023-03-05T04:07:24.064Z,3.20
2023-03-05T04:09:52.027Z,3.20
2023-03-05T04:12:19.842Z,3.20
2023-03-05T04:14:47.664Z,3.20
2023-03-05T04:17:16.583Z,3.10
2023-03-05T04:19:44.765Z,3.10
2023-03-05T04:22:14.092Z,3.10
2023-03-05T04:24:43.668Z,3.10
2023-03-05T04:27:12.270Z,3.10
2023-03-05T04:29:40.172Z,3.10
2023-03-05T04:32:08.935Z,3.10
2023-03-05T04:34:38.984Z,3.10
2023-03-05T04:37:07.218Z,3.10
2023-03-05T04:39:35.297Z,3.10
2023-03-05T04:42:04.561Z,3.10
2023-03-05T04:44:32.480Z,3.10
2023-03-05T04:47:00.251Z,3.10
2023-03-05T04:49:28.160Z,3.10
2023-03-05T04:51:57.595Z,3.10
2023-03-05T04:54:25.648Z,3.10
2023-03-05T04:56:53.468Z,3.10
2023-03-05T04:59:22.697Z,3.10
2023-03-05T05:01:50.568Z,3.10
2023-03-05T05:04:18.560Z,3.10
2023-03-05T05:06:46.393Z,3.10
2023-03-05T05:09:14.295Z,3.10
2023-03-05T05:11:43.136Z,3.10
2023-03-05T05:14:11.019Z,3.10
2023-03-05T05:16:40.216Z,3.10
2023-03-05T05:19:08.467Z,3.10
2023-03-05T05:21:36.469Z,3.10
2023-03-05T05:24:04.643Z,3.20
2023-03-05T05:26:32.484Z,3.10
2023-03-05T05:29:00.330Z,3.20
2023-03-05T05:31:28.423Z,3.20
2023-03-05T05:33:57.622Z,3.10
2023-03-05T05:36:25.679Z,3.20
2023-03-05T05:38:53.557Z,3.10
2023-03-05T05:41:21.971Z,3.10
2023-03-05T05:43:50.142Z,3.10
2023-03-05T05:46:20.389Z,3.20
2023-03-05T05:48:48.803Z,3.10
2023-03-05T05:51:20.308Z,3.20
2023-03-05T05:53:48.561Z,3.20
2023-03-05T05:56:17.700Z,3.20
2023-03-05T05:58:47.609Z,3.20
2023-03-05T06:01:17.532Z,3.30
2023-03-05T06:03:45.867Z,3.30
2023-03-05T06:06:17.948Z,3.40
2023-03-05T06:08:46.220Z,3.40
2023-03-05T06:11:14.427Z,3.50
2023-03-05T06:13:42.482Z,3.50
2023-03-05T06:16:13.241Z,3.50
2023-03-05T06:18:41.530Z,3.50
2023-03-05T06:21:12.307Z,3.60
2023-03-05T06:23:42.431Z,3.60
2023-03-05T06:26:13.177Z,3.70
2023-03-05T06:28:41.592Z,3.70
2023-03-05T06:31:11.492Z,3.80
2023-03-05T06:33:40.606Z,3.80
2023-03-05T06:36:10.819Z,3.80
2023-03-05T06:38:39.253Z,3.80
2023-03-05T06:41:11.577Z,3.90
2023-03-05T06:43:40.950Z,3.90
2023-03-05T06:46:11.987Z,3.90
2023-03-05T06:48:40.043Z,4.00
2023-03-05T06:51:14.157Z,4.00
2023-03-05T06:53:42.166Z,4.10
2023-03-05T06:56:13.874Z,4.10
2023-03-05T06:58:41.856Z,4.10
2023-03-05T07:01:09.838Z,4.10
2023-03-05T07:03:38.200Z,4.10
2023-03-05T07:06:07.397Z,4.10
2023-03-05T07:08:35.277Z,4.10
2023-03-05T07:11:03.319Z,4.10
2023-03-05T07:13:33.043Z,4.20
2023-03-05T07:16:00.885Z,4.20
2023-03-05T07:18:28.680Z,4.20
2023-03-05T07:20:56.448Z,4.20
2023-03-05T07:23:24.228Z,4.20
2023-03-05T07:25:51.997Z,4.10
2023-03-05T07:28:19.753Z,4.10
2023-03-05T07:30:57.447Z,4.10
2023-03-05T07:33:25.633Z,4.10
2023-03-05T07:35:53.522Z,4.10
2023-03-05T07:38:21.382Z,4.10
2023-03-05T07:40:49.966Z,4.10
2023-03-05T07:43:18.186Z,4.10
2023-03-05T07:45:48.723Z,4.10
2023-03-05T07:48:20.832Z,4.10
2023-03-05T07:50:49.724Z,4.20
2023-03-05T07:53:18.085Z,4.20
2023-03-05T07:55:46.750Z,4.20
2023-03-05T07:58:15.370Z,4.20
2023-03-05T08:00:43.219Z,4.20
2023-03-05T08:03:12.338Z,4.20
2023-03-05T08:05:41.199Z,4.30
2023-03-05T08:08:09.557Z,4.40
2023-03-05T08:10:38.506Z,4.40
2023-03-05T08:13:06.945Z,4.40
2023-03-05T08:15:34.882Z,4.50
2023-03-05T08:18:02.680Z,4.50
2023-03-05T08:20:32.809Z,4.60
2023-03-05T08:23:01.575Z,4.70
2023-03-05T08:25:29.655Z,4.70
2023-03-05T08:27:57.613Z,4.70
2023-03-05T08:30:27.394Z,4.80
2023-03-05T08:32:57.377Z,4.80
2023-03-05T08:35:25.433Z,4.90
2023-03-05T08:37:54.662Z,5.00
2023-03-05T08:40:22.437Z,5.10
2023-03-05T08:42:51.908Z,5.10
2023-03-05T08:45:19.778Z,5.00
2023-03-05T08:47:47.555Z,5.00
2023-03-05T08:50:15.393Z,4.90
2023-03-05T08:52:43.194Z,4.90
2023-03-05T08:55:15.895Z,4.80
2023-03-05T08:57:43.750Z,4.80
2023-03-05T09:00:13.952Z,4.80
2023-03-05T09:02:41.836Z,4.80
2023-03-05T09:05:10.458Z,4.80
2023-03-05T09:07:38.754Z,4.70
2023-03-05T09:10:07.847Z,4.70
2023-03-05T09:12:37.741Z,4.70
2023-03-05T09:15:07.731Z,4.80
2023-03-05T09:17:35.990Z,4.80
2023-03-05T09:20:05.632Z,4.90
2023-03-05T09:22:33.739Z,4.90
2023-03-05T09:25:01.581Z,4.90
2023-03-05T09:27:29.506Z,5.10
2023-03-05T09:29:58.767Z,5.10
2023-03-05T09:32:26.813Z,5.20
2023-03-05T09:34:54.699Z,5.20
2023-03-05T09:37:22.581Z,5.20
2023-03-05T09:39:50.514Z,5.30
2023-03-05T09:42:46.526Z,5.20
2023-03-05T09:45:23.689Z,5.30
2023-03-05T09:47:57.155Z,5.30
2023-03-05T09:50:43.101Z,5.30
2023-03-05T09:53:22.368Z,5.30
2023-03-05T09:55:52.461Z,5.30
2023-03-05T09:58:29.367Z,5.30
2023-03-05T10:01:02.828Z,5.40
2023-03-05T10:03:37.087Z,5.40
2023-03-05T10:06:12.054Z,5.40
2023-03-05T10:08:49.829Z,5.50
2023-03-05T10:11:41.479Z,5.50
2023-03-05T10:14:15.836Z,5.60
2023-03-05T10:17:22.978Z,5.60
2023-03-05T10:20:23.553Z,5.60
2023-03-05T10:23:34.738Z,5.60
2023-03-05T10:26:14.581Z,5.70
2023-03-05T10:28:49.197Z,5.80
2023-03-05T10:31:38.328Z,6.00
2023-03-05T10:34:23.737Z,6.20
2023-03-05T10:37:05.647Z,6.20
2023-03-05T10:39:52.797Z,6.20
2023-03-05T10:42:31.661Z,6.30
2023-03-05T10:45:00.675Z,6.40
2023-03-05T10:47:31.421Z,6.60
2023-03-05T10:50:00.679Z,6.70
2023-03-05T10:52:34.285Z,6.90
2023-03-05T10:55:02.436Z,7.10
2023-03-05T10:57:32.808Z,7.10
2023-03-05T11:00:14.186Z,7.10
2023-03-05T11:02:55.946Z,7.10
2023-03-05T11:05:42.208Z,6.90
2023-03-05T11:08:27.912Z,6.90
2023-03-05T11:11:06.147Z,6.90
2023-03-05T11:13:34.902Z,6.90
2023-03-05T11:16:04.504Z,6.80
2023-03-05T11:18:34.646Z,6.80
2023-03-05T11:21:11.256Z,6.90
2023-03-05T11:23:39.323Z,7.00
2023-03-05T11:26:24.360Z,6.90
2023-03-05T11:28:59.253Z,6.70
2023-03-05T11:31:29.055Z,6.60
2023-03-05T11:34:02.454Z,6.50
2023-03-05T11:36:33.588Z,6.40
2023-03-05T11:39:11.587Z,6.30
2023-03-05T11:41:43.059Z,6.30
2023-03-05T11:44:14.582Z,6.20
2023-03-05T11:46:45.684Z,6.10
2023-03-05T11:49:18.892Z,6.00
2023-03-05T11:51:57.139Z,5.90
2023-03-05T11:54:31.758Z,5.90
2023-03-05T11:57:01.539Z,6.00
2023-03-05T11:59:32.803Z,6.00
2023-03-05T12:02:01.411Z,6.20
2023-03-05T12:04:30.438Z,6.30
2023-03-05T12:07:02.644Z,6.30
2023-03-05T12:09:40.952Z,6.20
2023-03-05T12:12:20.736Z,6.20
2023-03-05T12:14:52.574Z,6.10
2023-03-05T12:17:28.100Z,5.90
2023-03-05T12:20:00.616Z,5.80
2023-03-05T12:22:35.570Z,5.70
2023-03-05T12:25:29.018Z,5.60
2023-03-05T12:27:57.027Z,5.60
2023-03-05T12:30:57.321Z,5.70
2023-03-05T12:33:37.509Z,5.70
2023-03-05T12:36:34.725Z,5.70
2023-03-05T12:39:49.561Z,5.60
2023-03-05T12:42:55.757Z,5.60
2023-03-05T12:45:33.151Z,5.50
2023-03-05T12:48:50.029Z,5.50
2023-03-05T12:51:31.551Z,5.50
2023-03-05T12:54:18.254Z,5.50
2023-03-05T12:56:48.483Z,5.30
2023-03-05T12:59:20.635Z,5.10
2023-03-05T13:01:54.692Z,4.90
2023-03-05T13:04:26.550Z,4.90
2023-03-05T13:07:03.367Z,5.00
2023-03-05T13:09:34.949Z,5.00
2023-03-05T13:12:11.273Z,5.10
2023-03-05T13:14:42.500Z,5.00
2023-03-05T13:17:37.994Z,5.10
2023-03-05T13:20:27.002Z,5.20
2023-03-05T13:23:05.722Z,5.20
2023-03-05T13:25:33.616Z,5.30
2023-03-05T13:28:05.935Z,5.40
2023-03-05T13:30:34.845Z,5.50
2023-03-05T13:33:04.789Z,5.50
2023-03-05T13:35:33.441Z,5.50
2023-03-05T13:38:02.106Z,5.60
2023-03-05T13:40:32.209Z,5.70
2023-03-05T13:43:13.593Z,5.80
2023-03-05T13:45:44.034Z,5.80
2023-03-05T13:48:20.452Z,5.80
2023-03-05T13:50:56.682Z,5.70
2023-03-05T13:53:26.359Z,5.80
2023-03-05T13:55:57.103Z,5.90
2023-03-05T13:58:48.263Z,6.00
2023-03-05T14:01:25.365Z,6.00
2023-03-05T14:03:53.931Z,6.00
2023-03-05T14:06:23.501Z,6.10
2023-03-05T14:08:53.044Z,6.00
2023-03-05T14:11:23.106Z,6.00
2023-03-05T14:14:03.490Z,5.90
2023-03-05T14:16:33.712Z,5.90
2023-03-05T14:19:03.550Z,5.90
2023-03-05T14:21:45.837Z,5.90
2023-03-05T14:24:15.768Z,5.80
2023-03-05T14:26:52.065Z,5.90
2023-03-05T14:29:24.239Z,5.90
2023-03-05T14:31:54.631Z,5.90
2023-03-05T14:34:26.593Z,5.80
2023-03-05T14:36:57.471Z,5.80
2023-03-05T14:39:29.297Z,5.80
2023-03-05T14:42:13.151Z,5.70
2023-03-05T14:44:43.558Z,5.60
2023-03-05T14:47:11.410Z,5.60
2023-03-05T14:49:39.218Z,5.60
2023-03-05T14:52:07.101Z,5.60
2023-03-05T14:54:38.096Z,5.60
2023-03-05T14:57:07.110Z,5.60
2023-03-05T14:59:34.995Z,5.60
2023-03-05T15:02:04.138Z,5.70
2023-03-05T15:04:32.726Z,5.70
2023-03-05T15:07:00.788Z,5.70
2023-03-05T15:09:29.055Z,5.70
2023-03-05T15:11:56.904Z,5.70
2023-03-05T15:14:24.746Z,5.60
2023-03-05T15:16:52.737Z,5.50
2023-03-05T15:19:22.057Z,5.50
2023-03-05T15:21:49.931Z,5.50
2023-03-05T15:24:17.765Z,5.50
2023-03-05T15:26:45.670Z,5.50
2023-03-05T15:29:13.480Z,5.40
2023-03-05T15:31:41.541Z,5.50
2023-03-05T15:34:09.390Z,5.50
2023-03-05T15:36:38.630Z,5.50
2023-03-05T15:39:07.119Z,5.50
2023-03-05T15:41:34.987Z,5.40
2023-03-05T15:44:02.977Z,5.40
2023-03-05T15:46:30.893Z,5.30
2023-03-05T15:48:58.866Z,5.30
2023-03-05T15:51:26.691Z,5.20
2023-03-05T15:53:55.810Z,5.30
2023-03-05T15:56:23.651Z,5.30
2023-03-05T15:58:51.659Z,5.30
2023-03-05T16:01:20.842Z,5.30
2023-03-05T16:03:48.801Z,5.40
2023-03-05T16:06:20.318Z,5.40
2023-03-05T16:08:48.554Z,5.50
2023-03-05T16:11:18.773Z,5.50
2023-03-05T16:13:46.566Z,5.50
2023-03-05T16:16:15.062Z,5.50
2023-03-05T16:18:46.069Z,5.50
2023-03-05T16:21:14.760Z,5.50
2023-03-05T16:23:42.513Z,5.40
2023-03-05T16:26:10.914Z,5.40
2023-03-05T16:28:40.133Z,5.40
2023-03-05T16:31:08.067Z,5.40
2023-03-05T16:33:35.916Z,5.30
2023-03-05T16:36:20.818Z,5.30
2023-03-05T16:38:50.287Z,5.20
2023-03-05T16:41:18.848Z,5.20
2023-03-05T16:43:48.250Z,5.20
2023-03-05T16:46:17.041Z,5.20
2023-03-05T16:48:45.131Z,5.20
2023-03-05T16:51:13.845Z,5.20
2023-03-05T16:53:42.291Z,5.20
2023-03-05T16:56:10.834Z,5.20
2023-03-05T16:58:40.561Z,5.20
2023-03-05T17:01:14.555Z,5.10
2023-03-05T17:03:43.508Z,5.10
2023-03-05T17:06:16.267Z,5.10
2023-03-05T17:08:45.641Z,5.00
2023-03-05T17:11:14.013Z,5.00
2023-03-05T17:13:42.359Z,5.00
2023-03-05T17:16:13.276Z,5.00
2023-03-05T17:18:41.322Z,5.00
2023-03-05T17:21:10.364Z,4.90
2023-03-05T17:23:39.460Z,4.90
2023-03-05T17:26:08.579Z,4.90
2023-03-05T17:28:36.949Z,4.90
2023-03-05T17:31:04.881Z,4.80
2023-03-05T17:33:35.229Z,4.80
2023-03-05T17:36:03.451Z,4.80
2023-03-05T17:38:31.479Z,4.80
2023-03-05T17:40:59.395Z,4.80
2023-03-05T17:43:27.230Z,4.80
2023-03-05T17:45:59.561Z,4.70
2023-03-05T17:48:28.022Z,4.70
2023-03-05T17:50:57.210Z,4.70
2023-03-05T17:53:25.262Z,4.70
2023-03-05T17:55:53.550Z,4.70
2023-03-05T17:58:21.329Z,4.70
2023-03-05T18:00:49.140Z,4.60
2023-03-05T18:03:16.997Z,4.60
2023-03-05T18:05:45.778Z,4.60
2023-03-05T18:08:14.894Z,4.60
2023-03-05T18:10:42.814Z,4.60
2023-03-05T18:13:10.675Z,4.50
2023-03-05T18:15:41.713Z,4.50
2023-03-05T18:18:09.538Z,4.50
2023-03-05T18:20:37.994Z,4.50
2023-03-05T18:23:06.984Z,4.50
2023-03-05T18:25:36.258Z,4.50
2023-03-05T18:28:06.330Z,4.50
2023-03-05T18:30:34.459Z,4.50
2023-03-05T18:33:02.545Z,4.40
2023-03-05T18:35:30.430Z,4.40
2023-03-05T18:37:58.947Z,4.30
2023-03-05T18:40:28.821Z,4.30
2023-03-05T18:43:00.930Z,4.30
2023-03-05T18:45:29.965Z,4.30
2023-03-05T18:47:57.878Z,4.30
2023-03-05T18:50:28.035Z,4.30
2023-03-05T18:52:55.950Z,4.30
2023-03-05T18:55:26.264Z,4.30
2023-03-05T18:57:54.460Z,4.30
2023-03-05T19:00:25.985Z,4.20
2023-03-05T19:02:54.445Z,4.20
2023-03-05T19:05:22.882Z,4.10
2023-03-05T19:07:50.731Z,4.00
2023-03-05T19:10:19.084Z,4.00
2023-03-05T19:12:50.958Z,3.90
2023-03-05T19:15:18.946Z,3.90
2023-03-05T19:17:49.403Z,3.80
2023-03-05T19:20:18.812Z,3.80
2023-03-05T19:22:46.653Z,3.80
2023-03-05T19:25:14.820Z,3.70
2023-03-05T19:27:42.619Z,3.70
2023-03-05T19:30:12.728Z,3.60
2023-03-05T19:32:40.608Z,3.60
2023-03-05T19:35:14.812Z,3.60
2023-03-05T19:37:42.693Z,3.50
2023-03-05T19:40:12.068Z,3.50
2023-03-05T19:42:39.971Z,3.50
2023-03-05T19:45:09.013Z,3.40
2023-03-05T19:47:36.842Z,3.40
2023-03-05T19:50:05.390Z,3.40
2023-03-05T19:52:34.614Z,3.30
2023-03-05T19:55:02.442Z,3.30
2023-03-05T19:57:30.288Z,3.30
2023-03-05T19:59:58.157Z,3.20
2023-03-05T20:02:26.049Z,3.20
2023-03-05T20:04:57.481Z,3.20
2023-03-05T20:07:25.361Z,3.20
2023-03-05T20:09:55.537Z,3.20
2023-03-05T20:12:23.739Z,3.10
2023-03-05T20:14:51.602Z,3.10
2023-03-05T20:17:20.035Z,3.00
2023-03-05T20:19:47.873Z,3.00
2023-03-05T20:22:15.695Z,3.00
2023-03-05T20:24:43.485Z,2.90
2023-03-05T20:27:12.598Z,2.90
2023-03-05T20:29:40.418Z,2.90
2023-03-05T20:32:08.599Z,2.90
2023-03-05T20:34:36.541Z,2.80
2023-03-05T20:37:04.992Z,2.80
2023-03-05T20:39:33.140Z,2.80
2023-03-05T20:42:00.970Z,2.80
2023-03-05T20:44:30.266Z,2.80
2023-03-05T20:47:12.406Z,2.70
2023-03-05T20:49:40.253Z,2.70
2023-03-05T20:52:08.024Z,2.70
2023-03-05T20:54:36.293Z,2.70
2023-03-05T20:57:04.081Z,2.70
2023-03-05T20:59:33.186Z,2.70
2023-03-05T21:02:01.001Z,2.70
2023-03-05T21:04:28.876Z,2.70
2023-03-05T21:06:56.662Z,2.70
2023-03-05T21:09:24.456Z,2.70
2023-03-05T21:11:52.214Z,2.70
2023-03-05T21:14:19.990Z,2.70
2023-03-05T21:16:49.056Z,2.70
2023-03-05T21:19:17.351Z,2.70
2023-03-05T21:21:45.733Z,2.70
2023-03-05T21:24:13.860Z,2.70
2023-03-05T21:26:41.635Z,2.70
2023-03-05T21:29:09.417Z,2.70
2023-03-05T21:31:37.776Z,2.70
2023-03-05T21:34:06.899Z,2.60
2023-03-05T21:36:35.029Z,2.60
2023-03-05T21:39:02.810Z,2.60
2023-03-05T21:41:31.088Z,2.60
2023-03-05T21:44:03.864Z,2.70
2023-03-05T21:46:31.698Z,2.70
2023-03-05T21:48:59.451Z,2.70
2023-03-05T21:51:38.375Z,2.70
2023-03-05T21:54:06.609Z,2.70
2023-03-05T21:56:34.412Z,2.70
2023-03-05T21:59:03.064Z,2.70
2023-03-05T22:01:31.034Z,2.70
2023-03-05T22:03:58.981Z,2.70
2023-03-05T22:06:28.226Z,2.70
2023-03-05T22:08:56.016Z,2.70
2023-03-05T22:11:24.281Z,2.70
2023-03-05T22:13:52.081Z,2.70
2023-03-05T22:16:23.929Z,2.70
2023-03-05T22:18:52.140Z,2.70
2023-03-05T22:21:22.176Z,2.70
2023-03-05T22:23:52.352Z,2.70
2023-03-05T22:26:20.249Z,2.70
2023-03-05T22:28:48.027Z,2.70
2023-03-05T22:31:20.950Z,2.70
2023-03-05T22:33:48.766Z,2.70
2023-03-05T22:36:17.060Z,2.70
2023-03-05T22:38:45.234Z,2.80
2023-03-05T22:41:16.056Z,2.80
2023-03-05T22:43:44.219Z,2.80
2023-03-05T22:46:14.099Z,2.80
2023-03-05T22:48:42.070Z,2.90
2023-03-05T22:51:11.313Z,2.90
2023-03-05T22:53:39.540Z,2.90
2023-03-05T22:56:08.752Z,2.90
2023-03-05T22:58:38.180Z,2.90
2023-03-05T23:01:12.465Z,3.00
2023-03-05T23:03:40.792Z,3.00
2023-03-05T23:06:09.874Z,3.00
2023-03-05T23:08:37.655Z,3.10
2023-03-05T23:11:09.483Z,3.10
2023-03-05T23:13:38.842Z,3.10
2023-03-05T23:16:07.258Z,3.10
2023-03-05T23:18:35.232Z,3.10
2023-03-05T23:21:03.080Z,3.10
2023-03-05T23:23:30.869Z,3.10
2023-03-05T23:25:58.695Z,3.10
2023-03-05T23:28:26.470Z,3.20
2023-03-05T23:30:55.624Z,3.20
2023-03-05T23:33:25.047Z,3.20
2023-03-05T23:35:55.588Z,3.20
2023-03-05T23:38:24.270Z,3.10
2023-03-05T23:40:54.123Z,3.10
2023-03-05T23:43:24.532Z,3.20
2023-03-05T23:45:54.920Z,3.20
2023-03-05T23:48:24.807Z,3.20
2023-03-05T23:50:52.690Z,3.20
2023-03-05T23:53:22.485Z,3.10
2023-03-05T23:55:50.927Z,3.20
2023-03-05T23:58:20.268Z,3.20
